Terminal Aerodrome Forecast
Issued by NWS

Home | Current Version | Previous Version | Graphics & Text | Print | Product List | Glossary On
Versions: 1 2 3 4 5 6 7 8 9 10 11 12 13 14 15 16 17
000
FTUS43 KICT 310502 AAB
TAFSLN
TAF AMD
KSLN 310502Z 3105/3124 17008KT P6SM -RA OVC035
     FM310800 17010KT 5SM -RA SCT015 OVC025
      TEMPO 3109/3112 -RASN
     FM311500 18013KT P6SM -RA OVC015=

USA.gov is the U.S. government's official web portal to all federal, state and local government web resources and services.